Time;durP1;ratioP1;P1;durP2;ratioP2;P2;SDS_P1;SDS_P2;PMS_P1;PMS_P2;Temp;Humidity;BMP_temperature;BMP_pressure;BME280_temperature;BME280_humidity;BME280_pressure;Samples;Min_cycle;Max_cycle;Signal;HPM_P1;HPM_P2
2021/11/06 00:00:31;;;;;;;21.75;16.40;;;7.10;99.90;;;;;;5070626;28;20378;-78
2021/11/06 00:02:57;;;;;;;24.50;16.93;;;7.00;99.90;;;;;;5080629;28;20483;-80
2021/11/06 00:05:23;;;;;;;22.75;16.35;;;7.10;99.90;;;;;;5076123;28;20965;-78
2021/11/06 00:07:48;;;;;;;20.27;15.70;;;7.10;99.90;;;;;;5068385;28;20505;-78
2021/11/06 00:10:16;;;;;;;26.17;17.00;;;7.10;99.90;;;;;;5068136;28;20377;-78
2021/11/06 00:12:42;;;;;;;21.37;16.63;;;7.10;99.90;;;;;;5068550;28;20884;-78
2021/11/06 00:15:10;;;;;;;26.48;17.05;;;7.10;99.90;;;;;;5068316;28;20438;-76
2021/11/06 00:17:37;;;;;;;21.40;16.80;;;7.10;99.90;;;;;;5068547;28;20381;-77
2021/11/06 00:20:05;;;;;;;25.40;16.98;;;7.10;99.90;;;;;;5069447;28;20409;-77
2021/11/06 00:22:32;;;;;;;27.65;17.25;;;7.20;99.90;;;;;;5070166;28;20386;-77
2021/11/06 00:24:58;;;;;;;20.95;16.67;;;7.20;99.90;;;;;;5068417;28;20525;-78
2021/11/06 00:27:23;;;;;;;23.70;15.82;;;7.20;99.90;;;;;;5070194;28;20487;-78
2021/11/06 00:29:49;;;;;;;21.63;16.33;;;7.20;99.90;;;;;;5074252;28;20395;-78
2021/11/06 00:32:15;;;;;;;24.27;16.07;;;7.30;99.90;;;;;;5090327;28;20979;-78
2021/11/06 00:34:40;;;;;;;24.97;16.50;;;7.20;99.90;;;;;;5085348;28;20461;-79
2021/11/06 00:37:06;;;;;;;22.50;16.42;;;7.30;99.90;;;;;;5069791;28;20448;-79
2021/11/06 00:39:33;;;;;;;24.67;17.40;;;7.30;99.90;;;;;;5072667;28;21022;-79
2021/11/06 00:41:59;;;;;;;24.88;17.45;;;7.40;99.90;;;;;;5088667;28;20738;-78
2021/11/06 00:44:24;;;;;;;25.00;17.05;;;7.30;99.90;;;;;;5085316;28;20923;-78
2021/11/06 00:46:50;;;;;;;27.53;16.87;;;7.30;99.90;;;;;;5069465;28;20405;-78
2021/11/06 00:49:16;;;;;;;24.70;16.43;;;7.40;99.90;;;;;;5070235;28;20374;-78
2021/11/06 00:51:41;;;;;;;26.77;16.73;;;7.40;99.90;;;;;;5089912;28;20540;-78
2021/11/06 00:54:07;;;;;;;22.58;16.05;;;7.40;99.90;;;;;;5088435;28;20409;-79
2021/11/06 00:56:32;;;;;;;28.60;16.80;;;7.40;99.90;;;;;;5089568;28;20388;-79
2021/11/06 00:58:58;;;;;;;23.03;16.63;;;7.40;99.90;;;;;;5087886;28;20420;-79
2021/11/06 01:01:23;;;;;;;23.42;16.60;;;7.40;99.90;;;;;;5089600;28;20406;-78
2021/11/06 01:03:49;;;;;;;24.33;16.90;;;7.50;99.90;;;;;;5089606;28;20730;-78
2021/11/06 01:06:15;;;;;;;23.30;16.83;;;7.50;99.90;;;;;;5089606;28;20404;-78
2021/11/06 01:08:43;;;;;;;22.02;16.30;;;7.60;99.90;;;;;;5089047;28;20446;-79
2021/11/06 01:11:09;;;;;;;22.27;15.88;;;7.60;99.90;;;;;;5067855;28;20421;-78
2021/11/06 01:13:35;;;;;;;22.40;15.88;;;7.70;99.90;;;;;;5070879;28;20378;-78
2021/11/06 01:16:01;;;;;;;23.00;15.67;;;7.70;99.90;;;;;;5089346;28;20425;-77
2021/11/06 01:18:26;;;;;;;26.13;16.50;;;7.80;99.90;;;;;;5089593;28;20456;-77
2021/11/06 01:20:52;;;;;;;23.35;16.50;;;7.90;99.90;;;;;;5070791;28;20473;-79
2021/11/06 01:23:17;;;;;;;21.88;16.27;;;7.90;99.90;;;;;;5069099;28;20378;-78
2021/11/06 01:25:43;;;;;;;23.43;15.60;;;7.90;99.90;;;;;;5080939;28;20384;-78
2021/11/06 01:28:09;;;;;;;23.37;16.20;;;7.90;99.90;;;;;;5069002;28;20720;-79
2021/11/06 01:30:34;;;;;;;26.10;16.52;;;7.90;99.90;;;;;;5068673;28;20370;-79
2021/11/06 01:33:00;;;;;;;24.08;16.80;;;8.00;99.90;;;;;;5068684;28;20386;-79
2021/11/06 01:35:26;;;;;;;23.67;16.40;;;7.90;99.90;;;;;;5068794;28;20425;-78
2021/11/06 01:37:51;;;;;;;24.33;16.00;;;8.00;99.90;;;;;;5069707;28;20484;-77
2021/11/06 01:40:19;;;;;;;21.17;16.53;;;8.10;99.90;;;;;;5068667;28;20398;-78
2021/11/06 01:42:45;;;;;;;22.45;15.98;;;8.00;99.90;;;;;;5068683;28;20464;-78
2021/11/06 01:45:17;;;;;;;22.95;15.77;;;7.90;99.90;;;;;;5086793;28;20400;-77
2021/11/06 01:47:42;;;;;;;24.52;16.92;;;8.00;99.90;;;;;;5088965;28;20391;-80
2021/11/06 01:50:09;;;;;;;22.40;16.15;;;7.90;99.90;;;;;;5088540;28;20738;-78
2021/11/06 01:52:35;;;;;;;22.73;16.10;;;7.90;99.90;;;;;;5048471;28;20462;-79
2021/11/06 01:55:00;;;;;;;23.30;15.83;;;7.90;99.90;;;;;;5048443;28;20399;-77
2021/11/06 01:57:27;;;;;;;22.60;15.25;;;8.00;99.90;;;;;;5048721;28;20371;-77
2021/11/06 01:59:53;;;;;;;25.65;15.15;;;8.00;99.90;;;;;;5081068;28;20434;-79
2021/11/06 02:02:19;;;;;;;21.90;15.15;;;8.00;99.90;;;;;;5087249;28;20384;-78
2021/11/06 02:04:45;;;;;;;23.40;15.45;;;8.10;99.90;;;;;;5088311;28;20465;-78
2021/11/06 02:07:11;;;;;;;22.73;14.57;;;8.10;99.90;;;;;;5088457;28;20377;-79
2021/11/06 02:09:37;;;;;;;25.10;15.00;;;8.20;99.90;;;;;;5072398;28;20792;-79
2021/11/06 02:12:03;;;;;;;23.10;15.00;;;8.10;99.90;;;;;;5066687;28;20512;-78
2021/11/06 02:14:30;;;;;;;22.20;14.40;;;8.10;99.90;;;;;;5069830;28;20421;-78
2021/11/06 02:16:56;;;;;;;22.08;14.45;;;8.20;99.90;;;;;;5067818;28;20374;-79
2021/11/06 02:19:30;;;;;;;21.53;14.57;;;8.10;99.90;;;;;;5069062;28;20404;-78
2021/11/06 02:21:58;;;;;;;22.63;15.10;;;8.10;99.90;;;;;;5068079;28;20421;-78
2021/11/06 02:24:23;;;;;;;19.25;13.95;;;8.10;99.90;;;;;;5067934;28;20378;-78
2021/11/06 02:26:49;;;;;;;24.00;15.17;;;8.20;99.90;;;;;;5066260;28;20402;-78
2021/11/06 02:29:16;;;;;;;23.35;14.77;;;8.20;99.90;;;;;;5084849;28;20797;-77
2021/11/06 02:31:42;;;;;;;20.27;13.35;;;8.20;99.90;;;;;;5088006;28;20376;-79
2021/11/06 02:34:08;;;;;;;19.08;13.57;;;8.30;99.90;;;;;;5088210;28;20384;-79
2021/11/06 02:36:34;;;;;;;22.23;13.85;;;8.30;99.90;;;;;;5088094;28;20380;-79
2021/11/06 02:39:00;;;;;;;23.10;14.73;;;8.30;99.90;;;;;;5073071;28;20398;-78
2021/11/06 02:41:27;;;;;;;21.40;13.50;;;8.30;99.90;;;;;;5067649;28;20902;-79
2021/11/06 02:43:53;;;;;;;22.20;14.02;;;8.30;99.90;;;;;;5083612;28;20475;-78
2021/11/06 02:46:19;;;;;;;24.95;14.38;;;8.20;99.90;;;;;;5088132;28;21279;-78
2021/11/06 02:48:44;;;;;;;20.80;13.23;;;8.30;99.90;;;;;;5075329;28;20386;-77
2021/11/06 02:51:12;;;;;;;23.77;14.73;;;8.30;99.90;;;;;;5067956;28;20378;-78
2021/11/06 02:53:38;;;;;;;20.73;13.93;;;8.30;99.90;;;;;;5067718;28;20411;-78
2021/11/06 02:56:04;;;;;;;22.97;14.10;;;8.30;99.90;;;;;;5075743;28;20404;-78
2021/11/06 02:58:29;;;;;;;19.95;12.82;;;8.30;99.90;;;;;;5087873;28;20958;-79
2021/11/06 03:00:55;;;;;;;20.25;13.00;;;8.40;99.90;;;;;;5083871;28;20402;-79
2021/11/06 03:03:21;;;;;;;22.55;13.20;;;8.30;99.90;;;;;;5067722;28;20388;-78
2021/11/06 03:05:47;;;;;;;20.20;12.55;;;8.40;99.90;;;;;;5073801;28;20404;-78
2021/11/06 03:08:12;;;;;;;18.98;12.43;;;8.40;99.90;;;;;;5087775;28;20877;-78
2021/11/06 03:10:39;;;;;;;20.53;13.47;;;8.50;99.90;;;;;;5083537;28;20422;-79
2021/11/06 03:13:05;;;;;;;19.95;13.13;;;8.30;99.90;;;;;;5067685;28;20385;-78
2021/11/06 03:15:31;;;;;;;19.70;13.10;;;8.30;99.90;;;;;;5071519;28;20464;-78
2021/11/06 03:17:57;;;;;;;22.70;13.90;;;8.30;99.90;;;;;;5088034;28;20384;-77
2021/11/06 03:20:22;;;;;;;22.80;13.23;;;8.30;99.90;;;;;;5087696;28;20377;-79
2021/11/06 03:22:51;;;;;;;20.20;13.27;;;8.40;99.90;;;;;;5087569;28;20396;-79
2021/11/06 03:25:16;;;;;;;20.00;12.82;;;8.40;99.90;;;;;;5085743;28;20408;-80
2021/11/06 03:27:42;;;;;;;20.73;13.40;;;8.40;99.90;;;;;;5088717;28;20888;-80
2021/11/06 03:30:10;;;;;;;22.17;14.00;;;8.40;99.90;;;;;;5090187;28;20917;-79
2021/11/06 03:32:37;;;;;;;20.65;13.65;;;8.40;99.90;;;;;;5091645;28;20380;-79
2021/11/06 03:35:04;;;;;;;19.88;13.90;;;8.40;99.90;;;;;;5091292;28;20372;-78
2021/11/06 03:37:30;;;;;;;21.20;13.50;;;8.30;99.90;;;;;;5075510;28;20376;-79
2021/11/06 03:39:56;;;;;;;21.42;13.25;;;8.30;99.90;;;;;;5088921;28;20389;-79
2021/11/06 03:42:21;;;;;;;19.23;12.37;;;8.30;99.90;;;;;;5070958;28;20435;-79
2021/11/06 03:44:47;;;;;;;24.35;13.55;;;8.40;99.90;;;;;;5070861;28;20367;-79
2021/11/06 03:47:12;;;;;;;21.53;13.40;;;8.40;99.90;;;;;;5088282;28;20392;-78
2021/11/06 03:49:38;;;;;;;21.73;13.70;;;8.40;99.90;;;;;;5091080;28;20893;-79
2021/11/06 03:52:04;;;;;;;21.98;13.18;;;8.40;99.90;;;;;;5074539;28;20400;-77
2021/11/06 03:54:30;;;;;;;24.10;13.82;;;8.40;99.90;;;;;;5070900;28;20386;-78
2021/11/06 03:56:55;;;;;;;20.67;13.90;;;8.50;99.90;;;;;;5071557;28;20385;-78
2021/11/06 03:59:21;;;;;;;22.07;13.50;;;8.50;99.90;;;;;;5090908;28;20450;-79
2021/11/06 04:01:47;;;;;;;23.73;13.63;;;8.50;99.90;;;;;;5091110;28;20380;-78
2021/11/06 04:04:12;;;;;;;23.42;14.00;;;8.50;99.90;;;;;;5090927;28;20436;-80
2021/11/06 04:06:38;;;;;;;24.60;14.27;;;8.40;99.90;;;;;;5072436;28;20762;-79
2021/11/06 04:09:05;;;;;;;25.47;14.00;;;8.40;99.90;;;;;;5069123;28;20378;-79
2021/11/06 04:11:31;;;;;;;24.50;14.35;;;8.30;99.90;;;;;;5074324;28;20847;-79
2021/11/06 04:13:56;;;;;;;26.35;14.77;;;8.30;99.90;;;;;;5070579;28;20440;-78
2021/11/06 04:16:22;;;;;;;24.02;14.75;;;8.20;99.90;;;;;;5071499;28;20823;-80
2021/11/06 04:18:47;;;;;;;24.20;14.02;;;8.20;99.90;;;;;;5068875;28;20390;-79
2021/11/06 04:21:13;;;;;;;22.10;13.40;;;8.20;99.90;;;;;;5070176;28;20374;-79
2021/11/06 04:23:39;;;;;;;25.25;14.43;;;8.20;99.90;;;;;;5070333;28;20771;-79
2021/11/06 04:26:04;;;;;;;21.92;13.68;;;8.20;99.90;;;;;;5070860;28;20493;-79
2021/11/06 04:28:30;;;;;;;21.03;13.30;;;8.20;99.90;;;;;;5070339;28;20461;-79
2021/11/06 04:30:56;;;;;;;25.40;14.07;;;8.10;99.90;;;;;;5070224;28;20405;-79
2021/11/06 04:33:22;;;;;;;22.25;13.43;;;8.10;99.90;;;;;;5068920;28;20922;-80
2021/11/06 04:35:47;;;;;;;22.25;13.80;;;8.10;99.90;;;;;;5084591;28;20385;-79
2021/11/06 04:38:13;;;;;;;24.58;13.63;;;8.00;99.90;;;;;;5090004;28;20380;-79
2021/11/06 04:40:39;;;;;;;20.30;12.93;;;8.00;99.90;;;;;;5073869;28;20403;-80
2021/11/06 04:43:04;;;;;;;25.40;13.48;;;8.20;99.90;;;;;;5069937;28;20867;-78
2021/11/06 04:45:31;;;;;;;20.47;12.27;;;8.20;99.90;;;;;;5081974;28;20499;-80
2021/11/06 04:47:56;;;;;;;22.63;12.77;;;8.20;99.90;;;;;;5090319;28;20712;-79
2021/11/06 04:50:22;;;;;;;22.63;12.70;;;8.20;99.90;;;;;;5090086;28;20449;-80
2021/11/06 04:52:47;;;;;;;20.27;11.85;;;8.20;99.90;;;;;;5089912;28;20431;-80
2021/11/06 04:55:15;;;;;;;21.13;11.45;;;8.20;99.90;;;;;;5074793;28;20761;-80
2021/11/06 04:57:42;;;;;;;19.27;12.13;;;8.10;99.90;;;;;;5069752;28;20370;-79
2021/11/06 05:00:12;;;;;;;21.08;12.35;;;8.10;99.90;;;;;;5067971;28;20386;-79
2021/11/06 05:02:38;;;;;;;22.00;11.20;;;8.10;99.90;;;;;;5069577;28;20897;-78
2021/11/06 05:05:04;;;;;;;17.57;11.00;;;8.10;99.90;;;;;;5081040;28;20384;-80
2021/11/06 05:07:29;;;;;;;22.23;11.05;;;8.10;99.90;;;;;;5089646;28;20455;-79
2021/11/06 05:09:55;;;;;;;20.70;10.80;;;8.10;99.90;;;;;;5074824;28;20488;-79
2021/11/06 05:12:22;;;;;;;18.67;10.73;;;8.00;99.90;;;;;;5069388;28;20390;-81
2021/11/06 05:14:49;;;;;;;17.95;9.70;;;8.00;99.90;;;;;;5079908;28;20940;-79
2021/11/06 05:17:15;;;;;;;17.27;10.60;;;8.00;99.90;;;;;;5089488;28;20720;-79
2021/11/06 05:19:42;;;;;;;18.23;10.48;;;7.90;99.90;;;;;;5089436;28;20466;-77
2021/11/06 05:22:08;;;;;;;20.52;11.30;;;7.90;99.90;;;;;;5088139;28;20392;-80
2021/11/06 05:24:34;;;;;;;19.35;10.57;;;7.90;99.90;;;;;;5084122;28;20384;-80
2021/11/06 05:27:00;;;;;;;20.55;10.90;;;7.80;99.90;;;;;;5089385;28;20396;-79
2021/11/06 05:29:26;;;;;;;21.23;10.75;;;7.80;99.90;;;;;;5080278;28;20928;-78
2021/11/06 05:31:51;;;;;;;19.20;10.88;;;7.80;99.90;;;;;;5068474;28;20435;-81
2021/11/06 05:34:17;;;;;;;18.30;11.07;;;7.70;99.90;;;;;;5068859;28;20377;-79
2021/11/06 05:36:43;;;;;;;19.50;11.20;;;7.70;99.90;;;;;;5068922;28;20402;-79
2021/11/06 05:39:08;;;;;;;20.00;11.30;;;7.70;99.90;;;;;;5069354;28;20982;-79
2021/11/06 05:41:34;;;;;;;18.05;11.02;;;7.70;99.90;;;;;;5068623;28;20470;-79
2021/11/06 05:44:00;;;;;;;20.15;11.60;;;7.70;99.90;;;;;;5067103;28;20386;-80
2021/11/06 05:46:26;;;;;;;18.33;11.00;;;7.70;99.90;;;;;;5067244;28;20402;-79
2021/11/06 05:48:51;;;;;;;20.45;12.13;;;7.70;99.90;;;;;;5071021;28;20384;-80
2021/11/06 05:51:17;;;;;;;19.35;12.23;;;7.70;99.90;;;;;;5088141;28;20384;-79
2021/11/06 05:53:43;;;;;;;17.47;10.87;;;7.70;99.90;;;;;;5077778;28;20374;-80
2021/11/06 05:56:08;;;;;;;19.97;11.87;;;7.70;99.90;;;;;;5068388;28;21099;-79
2021/11/06 05:58:34;;;;;;;18.85;11.32;;;7.80;99.90;;;;;;5066919;28;21225;-79
2021/11/06 06:01:00;;;;;;;19.95;11.57;;;7.80;99.90;;;;;;5069220;28;20422;-80
2021/11/06 06:03:26;;;;;;;16.67;11.30;;;7.80;99.90;;;;;;5086066;28;20392;-80
2021/11/06 06:05:51;;;;;;;20.23;11.90;;;7.80;99.90;;;;;;5088360;28;20396;-79
2021/11/06 06:08:17;;;;;;;17.17;11.67;;;7.80;99.90;;;;;;5079131;28;20417;-79
2021/11/06 06:10:44;;;;;;;19.73;11.02;;;7.90;99.90;;;;;;5068168;28;20859;-79
2021/11/06 06:13:10;;;;;;;19.85;11.10;;;7.90;99.90;;;;;;5068265;28;20404;-80
2021/11/06 06:15:35;;;;;;;18.33;10.65;;;8.00;99.90;;;;;;5088325;28;20369;-78
2021/11/06 06:18:01;;;;;;;19.25;11.38;;;8.00;99.90;;;;;;5087122;28;20395;-79
2021/11/06 06:20:26;;;;;;;17.53;10.70;;;8.00;99.90;;;;;;5067986;28;20786;-80
2021/11/06 06:22:52;;;;;;;16.97;10.83;;;8.10;99.90;;;;;;5075376;28;20396;-81
2021/11/06 06:25:18;;;;;;;17.77;10.80;;;8.10;99.90;;;;;;5086866;28;20948;-80
2021/11/06 06:27:44;;;;;;;18.20;10.52;;;8.20;99.90;;;;;;5088071;28;20463;-79
2021/11/06 06:30:13;;;;;;;18.27;11.03;;;8.30;99.90;;;;;;5088094;28;20377;-79
2021/11/06 06:32:39;;;;;;;16.90;11.13;;;8.40;99.90;;;;;;5086320;28;20375;-80
2021/11/06 06:35:06;;;;;;;17.08;10.63;;;8.40;99.90;;;;;;5076390;28;20378;-79
2021/11/06 06:37:32;;;;;;;17.95;10.35;;;8.50;99.90;;;;;;5074275;28;20376;-79
2021/11/06 06:39:57;;;;;;;20.52;10.70;;;8.60;99.90;;;;;;5087808;28;20720;-79
2021/11/06 06:42:23;;;;;;;17.47;10.77;;;8.60;99.90;;;;;;5087969;28;20493;-79
2021/11/06 06:44:50;;;;;;;15.70;10.48;;;8.70;99.90;;;;;;5087846;28;20380;-79
2021/11/06 06:47:16;;;;;;;16.00;10.63;;;8.70;99.90;;;;;;5087755;28;20397;-80
2021/11/06 06:49:42;;;;;;;16.70;11.07;;;8.80;99.90;;;;;;5085942;28;20384;-78
2021/11/06 06:52:08;;;;;;;16.77;10.52;;;8.70;99.90;;;;;;5080319;28;20386;-79
2021/11/06 06:54:34;;;;;;;17.98;11.27;;;8.80;99.90;;;;;;5067638;28;20420;-79
2021/11/06 06:57:00;;;;;;;16.45;11.10;;;8.80;99.90;;;;;;5067368;28;20389;-79
2021/11/06 06:59:25;;;;;;;16.38;11.05;;;8.80;99.90;;;;;;5067376;28;20394;-79
2021/11/06 07:01:51;;;;;;;18.20;10.70;;;8.90;99.90;;;;;;5069798;28;20480;-80
2021/11/06 07:04:16;;;;;;;16.60;10.23;;;8.80;99.90;;;;;;5090217;28;20896;-80
2021/11/06 07:06:42;;;;;;;17.65;10.57;;;9.00;99.90;;;;;;5087256;28;20405;-79
2021/11/06 07:09:09;;;;;;;17.50;10.23;;;8.90;99.90;;;;;;5088578;28;20646;-80
2021/11/06 07:11:34;;;;;;;15.83;10.53;;;9.00;99.90;;;;;;5091693;28;20382;-80
2021/11/06 07:14:00;;;;;;;13.93;9.90;;;9.10;99.90;;;;;;5090944;28;20459;-80
2021/11/06 07:16:26;;;;;;;18.60;9.63;;;9.10;99.90;;;;;;5071375;28;20374;-79
2021/11/06 07:18:52;;;;;;;16.27;9.50;;;9.10;99.90;;;;;;5071483;28;20524;-80
2021/11/06 07:21:18;;;;;;;12.82;8.52;;;9.10;99.90;;;;;;5074176;28;20483;-79
2021/11/06 07:23:43;;;;;;;12.50;8.40;;;9.20;99.90;;;;;;5091616;28;20419;-80
2021/11/06 07:26:09;;;;;;;13.33;8.43;;;9.20;99.90;;;;;;5091518;28;20407;-79
2021/11/06 07:28:35;;;;;;;13.32;8.20;;;9.20;99.90;;;;;;5089935;28;20399;-80
2021/11/06 07:31:01;;;;;;;13.53;8.40;;;9.10;99.90;;;;;;5084139;28;20378;-80
2021/11/06 07:33:26;;;;;;;12.73;7.83;;;9.20;99.90;;;;;;5071207;28;20381;-80
2021/11/06 07:35:52;;;;;;;14.25;8.45;;;9.10;99.90;;;;;;5072213;28;20382;-79
2021/11/06 07:38:18;;;;;;;14.70;8.63;;;9.10;99.90;;;;;;5091306;28;20368;-80
2021/11/06 07:40:44;;;;;;;13.47;8.60;;;9.10;99.90;;;;;;5091092;28;20389;-78
2021/11/06 07:43:11;;;;;;;12.15;7.78;;;9.10;99.90;;;;;;5091261;28;21000;-79
2021/11/06 07:45:37;;;;;;;14.43;9.00;;;9.10;99.90;;;;;;5073773;28;20409;-79
2021/11/06 07:48:03;;;;;;;12.68;8.52;;;9.20;99.90;;;;;;5070212;28;20382;-78
2021/11/06 07:50:30;;;;;;;12.82;8.07;;;9.30;99.90;;;;;;5070774;28;20374;-79
2021/11/06 07:52:56;;;;;;;12.30;8.38;;;9.30;99.90;;;;;;5091209;28;20875;-79
2021/11/06 07:55:22;;;;;;;11.55;7.15;;;9.30;99.90;;;;;;5090963;28;20437;-79
2021/11/06 07:57:48;;;;;;;11.60;7.63;;;9.40;99.90;;;;;;5082456;28;20384;-79
2021/11/06 08:00:18;;;;;;;11.33;7.27;;;9.40;99.90;;;;;;5070602;28;20876;-79
2021/11/06 08:02:45;;;;;;;9.32;7.15;;;9.50;99.90;;;;;;5070548;28;20386;-79
2021/11/06 08:05:13;;;;;;;12.60;7.60;;;9.60;99.90;;;;;;5070347;28;20386;-79
2021/11/06 08:07:40;;;;;;;11.93;7.30;;;9.60;99.90;;;;;;5049472;28;21243;-78
2021/11/06 08:10:06;;;;;;;9.82;6.78;;;9.70;99.90;;;;;;5050632;28;20386;-78
2021/11/06 08:12:33;;;;;;;9.80;7.05;;;9.60;99.90;;;;;;5070965;28;20389;-80
2021/11/06 08:14:59;;;;;;;9.63;7.13;;;9.70;99.90;;;;;;5090017;28;20407;-79
2021/11/06 08:17:25;;;;;;;12.15;6.78;;;9.80;99.90;;;;;;5089200;28;20423;-78
2021/11/06 08:19:50;;;;;;;11.27;7.15;;;9.90;99.90;;;;;;5090559;28;20376;-78
2021/11/06 08:22:16;;;;;;;10.03;7.00;;;9.90;99.90;;;;;;5070859;28;20986;-79
2021/11/06 08:24:41;;;;;;;12.07;7.60;;;10.00;99.90;;;;;;5068738;28;20390;-78
2021/11/06 08:27:08;;;;;;;12.10;8.57;;;10.00;99.90;;;;;;5070017;28;20455;-78
2021/11/06 08:29:35;;;;;;;13.43;7.85;;;10.10;99.90;;;;;;5071051;28;20476;-80
2021/11/06 08:32:00;;;;;;;10.38;6.88;;;10.00;99.90;;;;;;5070178;28;20432;-79
2021/11/06 08:34:27;;;;;;;11.20;6.90;;;10.10;99.90;;;;;;5070195;28;20752;-79
2021/11/06 08:36:54;;;;;;;11.45;6.65;;;10.10;99.90;;;;;;5084053;28;20455;-79
2021/11/06 08:39:20;;;;;;;9.57;6.70;;;10.20;99.90;;;;;;5089870;28;20449;-79
2021/11/06 08:41:47;;;;;;;11.47;7.00;;;10.20;99.90;;;;;;5078128;28;20471;-79
2021/11/06 08:44:17;;;;;;;11.38;7.35;;;10.30;99.90;;;;;;5069910;28;20903;-78
2021/11/06 08:46:45;;;;;;;10.15;6.82;;;10.30;99.90;;;;;;5070795;28;20923;-77
2021/11/06 08:49:11;;;;;;;10.47;6.73;;;10.40;99.90;;;;;;5070024;28;20468;-79
2021/11/06 08:51:38;;;;;;;11.93;7.05;;;10.30;99.90;;;;;;5086029;28;20388;-80
2021/11/06 08:54:04;;;;;;;9.30;6.88;;;10.40;99.90;;;;;;5088441;28;20993;-78
2021/11/06 08:56:30;;;;;;;10.55;7.05;;;10.50;99.90;;;;;;5088046;28;20529;-79
2021/11/06 08:58:57;;;;;;;8.80;6.38;;;10.50;99.90;;;;;;5089551;28;20385;-80
2021/11/06 09:01:23;;;;;;;9.27;6.93;;;10.60;99.90;;;;;;5079142;28;20404;-78
2021/11/06 09:03:48;;;;;;;9.15;7.28;;;10.60;99.90;;;;;;5070585;28;20389;-79
2021/11/06 09:06:14;;;;;;;10.27;7.18;;;10.60;99.90;;;;;;5080218;28;20842;-78
2021/11/06 09:08:42;;;;;;;10.03;6.70;;;10.70;99.90;;;;;;5069148;28;20386;-79
2021/11/06 09:11:10;;;;;;;12.82;6.82;;;10.80;99.90;;;;;;5069136;28;20565;-79
2021/11/06 09:13:37;;;;;;;12.37;7.17;;;10.80;99.90;;;;;;5067772;28;20903;-80
2021/11/06 09:16:05;;;;;;;7.88;6.40;;;10.70;99.90;;;;;;5069181;28;20374;-79
2021/11/06 09:18:30;;;;;;;10.15;6.45;;;10.80;99.90;;;;;;5072157;28;20438;-79
2021/11/06 09:20:56;;;;;;;8.48;6.22;;;10.70;99.90;;;;;;5089281;28;20785;-80
2021/11/06 09:23:22;;;;;;;11.93;6.75;;;10.80;99.90;;;;;;5089306;28;20716;-79
2021/11/06 09:25:47;;;;;;;8.82;6.40;;;10.90;99.90;;;;;;5088042;28;20475;-79
2021/11/06 09:28:14;;;;;;;10.33;6.53;;;10.90;99.90;;;;;;5087306;28;20902;-78
2021/11/06 09:30:39;;;;;;;8.30;6.80;;;11.00;99.90;;;;;;5068554;28;20405;-79
2021/11/06 09:33:05;;;;;;;9.15;6.32;;;10.90;99.90;;;;;;5067888;28;20378;-79
2021/11/06 09:35:30;;;;;;;11.65;7.07;;;11.00;99.90;;;;;;5067890;28;20374;-80
2021/11/06 09:37:57;;;;;;;7.93;6.57;;;11.10;99.90;;;;;;5072648;28;20397;-79
2021/11/06 09:40:22;;;;;;;8.65;6.40;;;11.10;99.90;;;;;;5065572;28;20385;-79
2021/11/06 09:42:48;;;;;;;9.17;6.60;;;11.20;99.90;;;;;;5068592;28;20370;-79
2021/11/06 09:45:15;;;;;;;8.98;6.30;;;11.30;99.90;;;;;;5068706;28;20375;-80
2021/11/06 09:47:44;;;;;;;10.60;6.35;;;11.20;99.90;;;;;;5067369;28;20385;-80
2021/11/06 09:50:18;;;;;;;10.52;6.85;;;11.30;99.90;;;;;;5068590;28;20378;-80
2021/11/06 09:52:46;;;;;;;7.97;6.50;;;11.40;99.90;;;;;;5068552;28;20373;-79
2021/11/06 09:55:12;;;;;;;8.18;5.80;;;11.40;99.90;;;;;;5068694;28;20860;-79
2021/11/06 09:57:37;;;;;;;8.33;6.50;;;11.50;99.90;;;;;;5068518;28;20378;-78
2021/11/06 10:00:08;;;;;;;8.00;6.67;;;11.60;99.90;;;;;;5069981;28;20710;-80
2021/11/06 10:02:34;;;;;;;7.75;5.93;;;11.60;99.90;;;;;;5048376;28;20391;-79
2021/11/06 10:04:59;;;;;;;6.95;5.88;;;11.60;99.90;;;;;;5079090;28;20373;-79
2021/11/06 10:07:26;;;;;;;9.13;6.00;;;11.60;99.90;;;;;;5088631;28;20912;-80
2021/11/06 10:10:04;;;;;;;7.93;6.10;;;11.80;99.90;;;;;;5088522;28;20433;-79
2021/11/06 10:13:02;;;;;;;8.27;5.28;;;11.90;99.90;;;;;;5088439;28;20381;-79
2021/11/06 10:15:28;;;;;;;10.87;5.43;;;11.90;99.90;;;;;;5062976;28;20466;-79
2021/11/06 10:17:54;;;;;;;8.17;5.70;;;12.00;99.90;;;;;;5088629;28;20730;-81
2021/11/06 10:20:34;;;;;;;7.18;5.88;;;11.90;99.90;;;;;;5087914;28;20377;-79
2021/11/06 10:23:07;;;;;;;8.30;5.93;;;11.80;99.90;;;;;;5048184;28;20379;-79
2021/11/06 10:25:33;;;;;;;7.93;5.78;;;11.90;99.90;;;;;;5051113;28;20469;-80
2021/11/06 10:28:00;;;;;;;8.43;5.70;;;11.90;99.90;;;;;;5066581;28;20398;-78
2021/11/06 10:30:29;;;;;;;9.05;5.43;;;11.90;99.90;;;;;;5074410;28;20384;-80
2021/11/06 10:33:05;;;;;;;10.07;6.00;;;11.90;99.90;;;;;;5086453;28;20387;-78
2021/11/06 10:35:53;;;;;;;11.37;5.83;;;12.00;99.90;;;;;;5088341;28;20929;-79
2021/11/06 10:38:22;;;;;;;8.07;5.20;;;12.10;99.90;;;;;;5077713;28;20459;-77
2021/11/06 10:40:52;;;;;;;8.05;4.70;;;12.10;99.90;;;;;;5065804;28;20882;-79
2021/11/06 10:43:20;;;;;;;8.65;5.20;;;12.10;99.90;;;;;;5065443;28;20392;-79
2021/11/06 10:45:50;;;;;;;7.97;4.75;;;12.00;99.90;;;;;;5067455;28;20931;-79
2021/11/06 10:48:19;;;;;;;8.70;4.80;;;11.90;99.90;;;;;;5064924;28;20388;-79
2021/11/06 10:51:03;;;;;;;7.20;5.05;;;11.90;99.90;;;;;;5052595;28;20434;-78
2021/11/06 10:53:48;;;;;;;7.20;5.13;;;12.00;99.90;;;;;;5047027;28;20566;-79
2021/11/06 10:56:14;;;;;;;10.23;6.07;;;11.90;99.90;;;;;;5046978;28;20878;-79
2021/11/06 10:58:43;;;;;;;10.10;5.70;;;11.80;99.90;;;;;;5046980;28;20434;-80
2021/11/06 11:01:11;;;;;;;7.95;5.28;;;11.70;99.90;;;;;;5047030;28;20398;-78
2021/11/06 11:03:42;;;;;;;7.68;5.20;;;11.70;99.90;;;;;;5046847;28;20388;-79
2021/11/06 11:06:15;;;;;;;6.90;5.10;;;11.60;99.90;;;;;;5046153;28;20402;-79
2021/11/06 11:08:50;;;;;;;9.13;5.50;;;11.60;99.90;;;;;;5047552;28;20421;-78
2021/11/06 11:11:19;;;;;;;11.10;5.33;;;11.50;99.90;;;;;;5047520;28;20909;-79
2021/11/06 11:13:52;;;;;;;8.13;5.35;;;11.40;99.90;;;;;;5047430;28;20912;-77
2021/11/06 11:16:18;;;;;;;7.13;5.32;;;11.50;99.90;;;;;;5047648;28;20388;-78
2021/11/06 11:18:55;;;;;;;8.67;5.57;;;11.60;99.90;;;;;;5047335;28;20380;-78
2021/11/06 11:21:32;;;;;;;6.78;5.25;;;11.80;99.90;;;;;;5045864;28;20433;-79
2021/11/06 11:24:03;;;;;;;8.53;4.57;;;11.90;99.90;;;;;;5047389;28;20381;-79
2021/11/06 11:26:34;;;;;;;7.80;4.97;;;11.80;99.90;;;;;;5045486;28;20494;-79
2021/11/06 11:29:01;;;;;;;8.00;4.90;;;11.90;99.90;;;;;;5047556;28;20423;-77
2021/11/06 11:31:29;;;;;;;6.45;4.50;;;11.90;99.90;;;;;;5046640;28;20473;-79
2021/11/06 11:33:57;;;;;;;7.63;5.20;;;11.80;99.90;;;;;;5046482;28;20392;-79
2021/11/06 11:36:32;;;;;;;9.07;5.05;;;11.90;99.90;;;;;;5045928;28;20821;-78
2021/11/06 11:39:00;;;;;;;8.30;4.60;;;11.90;99.90;;;;;;5047120;28;20505;-78
2021/11/06 11:42:15;;;;;;;11.73;6.80;;;11.90;99.90;;;;;;5060342;28;20393;-79
2021/11/06 11:44:58;;;;;;;7.17;4.60;;;11.90;99.90;;;;;;5065626;28;20390;-77
2021/11/06 11:47:48;;;;;;;7.32;4.85;;;11.90;99.90;;;;;;5067014;28;20406;-78
2021/11/06 11:50:18;;;;;;;9.27;5.65;;;11.90;99.90;;;;;;5069035;28;20725;-78
2021/11/06 11:52:52;;;;;;;10.07;5.40;;;12.00;99.90;;;;;;5070793;28;20377;-77
2021/11/06 11:55:28;;;;;;;6.88;4.55;;;12.10;99.90;;;;;;5069263;28;20467;-77
2021/11/06 11:58:11;;;;;;;7.32;4.80;;;12.20;99.90;;;;;;5070749;28;21218;-77
2021/11/06 12:00:49;;;;;;;8.23;4.23;;;12.30;99.90;;;;;;5069337;28;20382;-78
2021/11/06 12:03:36;;;;;;;7.28;4.72;;;12.30;99.90;;;;;;5071023;28;20379;-79
2021/11/06 12:06:21;;;;;;;8.68;4.10;;;12.20;99.90;;;;;;5068936;28;20414;-79
2021/11/06 12:08:48;;;;;;;10.43;4.53;;;12.30;99.90;;;;;;5070664;28;20408;-79
2021/11/06 12:11:17;;;;;;;7.25;3.83;;;12.30;99.90;;;;;;5060680;28;21730;-79
2021/11/06 12:13:49;;;;;;;7.22;4.03;;;12.20;99.90;;;;;;5064858;28;20912;-80
2021/11/06 12:16:25;;;;;;;5.87;3.90;;;12.30;99.90;;;;;;5064200;28;20402;-79
2021/11/06 12:18:59;;;;;;;7.03;4.30;;;12.30;99.90;;;;;;5065591;28;21193;-79
2021/11/06 12:21:32;;;;;;;8.27;4.00;;;12.40;99.90;;;;;;5061635;28;20851;-77
2021/11/06 12:24:19;;;;;;;7.63;4.35;;;12.40;99.90;;;;;;5066177;28;20390;-80
2021/11/06 12:27:01;;;;;;;7.90;4.20;;;12.40;99.90;;;;;;5062981;28;20421;-81
2021/11/06 12:29:45;;;;;;;4.80;3.67;;;12.50;99.90;;;;;;5063878;28;20390;-78
2021/11/06 12:32:17;;;;;;;5.80;3.50;;;12.50;99.90;;;;;;5065137;28;20911;-79
2021/11/06 12:34:46;;;;;;;7.32;3.88;;;12.50;99.90;;;;;;5064938;28;20465;-80
2021/11/06 12:37:35;;;;;;;7.95;4.05;;;12.50;99.90;;;;;;5065725;28;21131;-79
2021/11/06 12:40:21;;;;;;;8.17;4.00;;;12.50;99.90;;;;;;5063247;28;20524;-79
2021/11/06 12:43:07;;;;;;;7.80;3.83;;;12.50;99.90;;;;;;5063999;28;20405;-79